createdAt,value
2023-01-09T00:00:43.797Z,4.88
2023-01-09T00:05:45.256Z,4.95
2023-01-09T00:10:49.760Z,4.88
2023-01-09T00:15:51.489Z,4.92
2023-01-09T00:20:52.929Z,4.97
2023-01-09T00:26:08.901Z,4.96
2023-01-09T00:31:11.172Z,4.93
2023-01-09T00:36:12.654Z,4.83
2023-01-09T00:41:19.833Z,4.79
2023-01-09T00:46:31.274Z,4.85
2023-01-09T00:51:32.703Z,4.77
2023-01-09T00:56:35.688Z,4.82
2023-01-09T01:01:37.245Z,4.84
2023-01-09T01:06:57.133Z,4.74
2023-01-09T01:11:58.544Z,4.60
2023-01-09T01:17:00.349Z,4.51
2023-01-09T01:22:02.801Z,4.45
2023-01-09T01:27:04.276Z,4.42
2023-01-09T01:32:05.761Z,4.36
2023-01-09T01:37:07.420Z,4.37
2023-01-09T01:42:11.604Z,4.46
2023-01-09T01:47:14.502Z,4.48
2023-01-09T01:52:17.604Z,4.37
2023-01-09T01:57:19.120Z,4.37
2023-01-09T02:02:23.701Z,4.21
2023-01-09T02:07:25.385Z,4.25
2023-01-09T02:12:28.004Z,4.19
2023-01-09T02:17:59.550Z,4.19
2023-01-09T02:23:55.100Z,4.17
2023-01-09T02:29:20.992Z,4.14
2023-01-09T02:34:30.893Z,4.00
2023-01-09T02:39:51.420Z,3.99
2023-01-09T02:44:53.495Z,4.12
2023-01-09T02:49:57.699Z,4.14
2023-01-09T02:55:04.942Z,4.19
2023-01-09T03:00:06.524Z,4.01
2023-01-09T03:05:30.714Z,3.90
2023-01-09T03:10:41.451Z,3.99
2023-01-09T03:15:45.849Z,4.04
2023-01-09T03:20:49.672Z,4.06
2023-01-09T03:25:51.093Z,4.05
2023-01-09T03:30:52.547Z,4.00
2023-01-09T03:35:53.975Z,3.85
2023-01-09T03:40:55.447Z,3.93
2023-01-09T03:45:56.939Z,4.05
2023-01-09T03:50:58.687Z,4.22
2023-01-09T03:56:00.379Z,4.20
2023-01-09T04:01:05.286Z,4.13
2023-01-09T04:06:07.284Z,4.13
2023-01-09T04:11:08.752Z,4.13
2023-01-09T04:16:10.199Z,4.05
2023-01-09T04:21:11.671Z,4.07
2023-01-09T04:26:13.213Z,4.14
2023-01-09T04:31:15.802Z,4.16
2023-01-09T04:36:17.284Z,4.20
2023-01-09T04:41:43.592Z,4.11
2023-01-09T04:46:45.191Z,4.17
2023-01-09T04:51:47.203Z,4.22
2023-01-09T04:56:48.722Z,4.22
2023-01-09T05:01:52.263Z,4.22
2023-01-09T05:06:53.924Z,4.14
2023-01-09T05:11:55.423Z,4.13
2023-01-09T05:16:56.891Z,4.14
2023-01-09T05:21:58.356Z,4.18
2023-01-09T05:26:59.858Z,4.12
2023-01-09T05:32:01.563Z,4.01
2023-01-09T05:37:03.066Z,3.91
2023-01-09T05:42:04.651Z,3.74
2023-01-09T05:47:06.129Z,3.83
2023-01-09T05:52:08.556Z,3.91
2023-01-09T05:57:09.976Z,3.91
2023-01-09T06:02:11.611Z,4.01
2023-01-09T06:07:16.630Z,4.07
2023-01-09T06:12:21.018Z,4.12
2023-01-09T06:17:22.492Z,4.18
2023-01-09T06:22:23.898Z,4.30
2023-01-09T06:27:25.682Z,4.29
2023-01-09T06:32:27.147Z,4.21
2023-01-09T06:37:28.710Z,4.26
2023-01-09T06:42:30.141Z,4.33
2023-01-09T06:47:31.557Z,4.39
2023-01-09T06:52:32.961Z,4.38
2023-01-09T06:57:34.757Z,4.45
2023-01-09T07:02:36.277Z,4.31
2023-01-09T07:07:41.301Z,4.41
2023-01-09T07:12:42.736Z,4.42
2023-01-09T07:17:44.196Z,4.45
2023-01-09T07:22:46.462Z,4.42
2023-01-09T07:27:48.121Z,4.37
2023-01-09T07:32:49.597Z,4.34
2023-01-09T07:37:51.080Z,4.31
2023-01-09T07:42:53.451Z,4.41
2023-01-09T07:47:54.922Z,4.48
2023-01-09T07:52:56.433Z,4.47
2023-01-09T07:57:57.865Z,4.64
2023-01-09T08:02:59.331Z,4.67
2023-01-09T08:08:01.955Z,4.76
2023-01-09T08:13:03.402Z,4.86
2023-01-09T08:18:04.912Z,4.93
2023-01-09T08:23:06.350Z,5.07
2023-01-09T08:28:09.332Z,5.11
2023-01-09T08:33:11.075Z,5.05
2023-01-09T08:38:12.796Z,4.97
2023-01-09T08:43:32.947Z,4.96
2023-01-09T08:48:34.353Z,5.06
2023-01-09T08:53:35.799Z,5.05
2023-01-09T08:58:37.291Z,5.06
2023-01-09T09:03:38.708Z,5.26
2023-01-09T09:08:40.136Z,5.25
2023-01-09T09:13:41.547Z,5.39
2023-01-09T09:18:42.949Z,5.28
2023-01-09T09:23:44.431Z,5.35
2023-01-09T09:28:45.857Z,5.61
2023-01-09T09:33:47.487Z,5.69
2023-01-09T09:38:48.893Z,5.84
2023-01-09T09:44:35.227Z,6.00
2023-01-09T09:49:56.222Z,6.05
2023-01-09T09:55:02.527Z,6.11
2023-01-09T10:00:06.460Z,6.09
2023-01-09T10:05:17.376Z,6.06
2023-01-09T10:10:28.121Z,6.20
2023-01-09T10:15:40.554Z,6.42
2023-01-09T10:20:50.572Z,6.46
2023-01-09T10:26:15.323Z,6.55
2023-01-09T10:31:48.858Z,6.62
2023-01-09T10:37:20.163Z,6.68
2023-01-09T10:42:44.345Z,6.76
2023-01-09T10:47:46.539Z,6.95
2023-01-09T10:52:51.049Z,7.05
2023-01-09T10:57:58.598Z,7.11
2023-01-09T11:03:00.099Z,7.26
2023-01-09T11:08:12.048Z,7.22
2023-01-09T11:13:25.110Z,7.32
2023-01-09T11:18:27.540Z,7.50
2023-01-09T11:23:31.828Z,7.56
2023-01-09T11:28:33.310Z,7.68
2023-01-09T11:33:41.260Z,7.76
2023-01-09T11:38:57.781Z,7.76
2023-01-09T11:44:00.450Z,7.73
2023-01-09T11:49:04.311Z,7.73
2023-01-09T11:54:29.605Z,7.87
2023-01-09T11:59:31.584Z,7.98
2023-01-09T12:04:54.631Z,8.13
2023-01-09T12:10:03.287Z,8.14
2023-01-09T12:15:26.676Z,8.10
2023-01-09T12:20:58.716Z,8.12
2023-01-09T12:26:24.155Z,8.23
2023-01-09T12:31:48.632Z,8.27
2023-01-09T12:37:11.900Z,8.52
2023-01-09T12:42:31.987Z,8.51
2023-01-09T12:48:22.942Z,8.50
2023-01-09T12:53:31.149Z,8.62
2023-01-09T12:58:42.996Z,8.61
2023-01-09T13:03:52.409Z,8.57
2023-01-09T13:09:13.147Z,8.65
2023-01-09T13:14:24.527Z,8.59
2023-01-09T13:19:39.452Z,8.62
2023-01-09T13:25:06.385Z,8.64
2023-01-09T13:30:17.987Z,8.67
2023-01-09T13:35:19.510Z,8.82
2023-01-09T13:40:26.689Z,8.80
2023-01-09T13:45:31.341Z,8.71
2023-01-09T13:50:32.773Z,8.89
2023-01-09T13:55:36.206Z,8.88
2023-01-09T14:00:38.146Z,8.93
2023-01-09T14:05:39.505Z,8.83
2023-01-09T14:10:43.693Z,8.85
2023-01-09T14:15:47.097Z,8.84
2023-01-09T14:20:58.747Z,8.85
2023-01-09T14:26:01.283Z,8.87
2023-01-09T14:31:05.003Z,8.84
2023-01-09T14:36:22.168Z,8.84
2023-01-09T14:42:03.925Z,8.79
2023-01-09T14:47:17.645Z,8.80
2023-01-09T14:52:24.802Z,8.75
2023-01-09T14:57:28.800Z,8.79
2023-01-09T15:02:33.856Z,8.85
2023-01-09T15:07:44.242Z,8.80
2023-01-09T15:12:49.333Z,8.80
2023-01-09T15:18:03.275Z,8.63
2023-01-09T15:23:05.459Z,8.77
2023-01-09T15:28:32.012Z,8.66
2023-01-09T15:33:34.745Z,8.76
2023-01-09T15:38:36.307Z,8.74
2023-01-09T15:43:43.379Z,8.67
2023-01-09T15:48:45.161Z,8.70
2023-01-09T15:53:51.071Z,8.73
2023-01-09T15:58:54.504Z,8.46
2023-01-09T16:04:03.796Z,8.73
2023-01-09T16:09:14.850Z,8.58
2023-01-09T16:14:16.225Z,8.51
2023-01-09T16:19:45.843Z,8.58
2023-01-09T16:24:48.544Z,8.64
2023-01-09T16:29:57.399Z,8.43
2023-01-09T16:35:06.031Z,8.46
2023-01-09T16:40:13.815Z,8.39
2023-01-09T16:45:15.386Z,8.28
2023-01-09T16:50:16.898Z,8.23
2023-01-09T16:55:18.453Z,8.20
2023-01-09T17:00:21.279Z,8.11
2023-01-09T17:05:22.735Z,8.20
2023-01-09T17:10:25.456Z,8.17
2023-01-09T17:15:27.026Z,8.27
2023-01-09T17:20:29.862Z,8.24
2023-01-09T17:25:50.000Z,8.24
2023-01-09T17:30:51.472Z,8.15
2023-01-09T17:35:53.404Z,8.19
2023-01-09T17:40:57.785Z,8.23
2023-01-09T17:46:00.109Z,8.29
2023-01-09T17:51:01.729Z,8.28
2023-01-09T17:56:04.918Z,8.23
2023-01-09T18:01:06.437Z,8.23
2023-01-09T18:06:09.674Z,8.14
2023-01-09T18:11:14.811Z,8.13
2023-01-09T18:16:19.186Z,8.14
2023-01-09T18:21:23.284Z,8.06
2023-01-09T18:26:24.739Z,8.07
2023-01-09T18:31:28.256Z,8.01
2023-01-09T18:36:30.230Z,7.87
2023-01-09T18:41:32.288Z,7.83
2023-01-09T18:46:33.763Z,7.84
2023-01-09T18:51:36.648Z,7.80
2023-01-09T18:56:38.161Z,7.68
2023-01-09T19:01:39.658Z,7.69
2023-01-09T19:06:41.075Z,7.63
2023-01-09T19:11:44.412Z,7.56
2023-01-09T19:16:46.237Z,7.50
2023-01-09T19:21:47.712Z,7.42
2023-01-09T19:26:49.498Z,7.42
2023-01-09T19:31:53.025Z,7.41
2023-01-09T19:36:54.491Z,7.41
2023-01-09T19:41:56.066Z,7.35
2023-01-09T19:46:57.467Z,7.31
2023-01-09T19:52:00.667Z,7.24
2023-01-09T19:57:02.211Z,7.17
2023-01-09T20:02:03.733Z,6.98
2023-01-09T20:07:06.010Z,6.92
2023-01-09T20:12:07.583Z,6.92
2023-01-09T20:17:09.067Z,6.89
2023-01-09T20:22:10.473Z,6.82
2023-01-09T20:27:11.909Z,6.88
2023-01-09T20:32:13.330Z,6.85
2023-01-09T20:37:14.782Z,6.97
2023-01-09T20:42:16.234Z,7.10
2023-01-09T20:47:17.686Z,7.26
2023-01-09T20:52:19.127Z,7.33
2023-01-09T20:57:20.577Z,7.43
2023-01-09T21:02:22.458Z,7.40
2023-01-09T21:07:25.029Z,7.40
2023-01-09T21:12:34.800Z,7.31
2023-01-09T21:17:38.893Z,7.29
2023-01-09T21:22:40.433Z,7.30
2023-01-09T21:27:44.381Z,7.34
2023-01-09T21:32:45.806Z,7.35
2023-01-09T21:37:47.210Z,7.34
2023-01-09T21:43:07.114Z,7.33
2023-01-09T21:48:08.604Z,7.29
2023-01-09T21:53:10.083Z,7.30
2023-01-09T21:58:11.497Z,7.30
2023-01-09T22:03:17.275Z,7.24
2023-01-09T22:08:18.772Z,7.27
2023-01-09T22:13:20.458Z,7.33
2023-01-09T22:18:22.415Z,7.38
2023-01-09T22:23:23.859Z,7.34
2023-01-09T22:28:25.359Z,7.31
2023-01-09T22:33:26.761Z,7.36
2023-01-09T22:38:28.173Z,7.36
2023-01-09T22:43:30.044Z,7.41
2023-01-09T22:48:32.376Z,7.40
2023-01-09T22:53:34.320Z,7.38
2023-01-09T22:58:36.213Z,7.39
2023-01-09T23:03:38.106Z,7.40
2023-01-09T23:08:40.083Z,7.42
2023-01-09T23:13:41.804Z,7.43
2023-01-09T23:18:43.204Z,7.44
2023-01-09T23:23:45.010Z,7.44
2023-01-09T23:28:46.465Z,7.46
2023-01-09T23:33:47.921Z,7.49
2023-01-09T23:38:49.575Z,7.56
2023-01-09T23:43:50.989Z,7.63
2023-01-09T23:48:52.399Z,7.65
2023-01-09T23:53:53.845Z,7.67
2023-01-09T23:58:55.269Z,7.70
